createdAt,value
2018-11-01T00:01:50.773Z,7.00
2018-11-01T00:04:19.079Z,7.33
2018-11-01T00:06:47.369Z,7.07
2018-11-01T00:09:15.692Z,8.57
2018-11-01T00:11:44.005Z,7.67
2018-11-01T00:14:12.309Z,9.43
2018-11-01T00:16:40.596Z,8.67
2018-11-01T00:19:08.908Z,10.50
2018-11-01T00:21:37.206Z,7.70
2018-11-01T00:24:05.761Z,8.57
2018-11-01T00:26:34.059Z,8.07
2018-11-01T00:29:02.407Z,8.57
2018-11-01T00:31:30.705Z,7.43
2018-11-01T00:33:59.018Z,7.33
2018-11-01T00:36:27.313Z,7.83
2018-11-01T00:38:55.633Z,8.87
2018-11-01T00:41:23.929Z,9.97
2018-11-01T00:43:52.256Z,8.77
2018-11-01T00:46:20.557Z,6.77
2018-11-01T00:48:48.879Z,6.83
2018-11-01T00:51:17.201Z,8.07
2018-11-01T00:53:45.526Z,9.23
2018-11-01T00:56:13.821Z,8.97
2018-11-01T00:58:42.138Z,9.07
2018-11-01T01:01:10.577Z,7.53
2018-11-01T01:03:39.078Z,8.20
2018-11-01T01:06:07.386Z,8.53
2018-11-01T01:08:35.715Z,8.67
2018-11-01T01:11:04.066Z,8.80
2018-11-01T01:13:32.393Z,6.63
2018-11-01T01:16:00.685Z,7.53
2018-11-01T01:18:29.010Z,7.70
2018-11-01T01:20:57.304Z,6.33
2018-11-01T01:23:25.621Z,7.43
2018-11-01T01:25:53.925Z,8.40
2018-11-01T01:28:22.246Z,6.53
2018-11-01T01:30:50.556Z,8.50
2018-11-01T01:33:18.870Z,8.20
2018-11-01T01:35:47.185Z,8.53
2018-11-01T01:38:15.497Z,8.43
2018-11-01T01:40:43.788Z,9.07
2018-11-01T01:43:12.093Z,8.57
2018-11-01T01:45:40.411Z,11.77
2018-11-01T01:48:08.712Z,9.87
2018-11-01T01:50:37.054Z,8.57
2018-11-01T01:53:05.362Z,7.63
2018-11-01T01:55:33.705Z,10.63
2018-11-01T01:58:02.029Z,12.67
2018-11-01T02:00:30.351Z,11.97
2018-11-01T02:02:58.646Z,10.90
2018-11-01T02:05:26.961Z,11.43
2018-11-01T02:07:55.265Z,13.07
2018-11-01T02:10:23.592Z,10.83
2018-11-01T02:12:51.909Z,10.20
2018-11-01T02:15:21.228Z,10.47
2018-11-01T02:17:49.533Z,11.40
2018-11-01T02:20:19.005Z,12.97
2018-11-01T02:22:47.688Z,10.00
2018-11-01T02:25:16.029Z,9.50
2018-11-01T02:27:49.808Z,9.57
2018-11-01T02:30:18.785Z,11.70
2018-11-01T02:32:47.325Z,9.70
2018-11-01T02:35:16.765Z,13.67
2018-11-01T02:37:45.565Z,13.27
2018-11-01T02:40:14.225Z,13.87
2018-11-01T02:42:43.092Z,12.90
2018-11-01T02:45:12.413Z,11.40
2018-11-01T02:47:40.766Z,10.93
2018-11-01T02:50:09.894Z,12.23
2018-11-01T02:52:38.548Z,11.73
2018-11-01T02:55:07.225Z,12.33
2018-11-01T02:57:35.534Z,12.17
2018-11-01T03:00:03.924Z,10.70
2018-11-01T03:02:32.229Z,12.97
2018-11-01T03:05:00.549Z,13.20
2018-11-01T03:07:28.844Z,12.77
2018-11-01T03:09:57.161Z,13.50
2018-11-01T03:12:25.471Z,16.97
2018-11-01T03:14:53.798Z,12.53
2018-11-01T03:17:22.114Z,10.30
2018-11-01T03:19:50.429Z,11.53
2018-11-01T03:22:18.737Z,11.30
2018-11-01T03:24:47.048Z,11.10
2018-11-01T03:27:15.345Z,10.20
2018-11-01T03:29:43.653Z,11.80
2018-11-01T03:32:12.093Z,9.50
2018-11-01T03:34:40.413Z,11.47
2018-11-01T03:37:08.717Z,10.03
2018-11-01T03:39:37.148Z,10.40
2018-11-01T03:42:05.672Z,9.67
2018-11-01T03:44:33.994Z,9.90
2018-11-01T03:47:02.295Z,14.47
2018-11-01T03:49:30.630Z,11.67
2018-11-01T03:51:59.039Z,12.00
2018-11-01T03:54:27.291Z,11.80
2018-11-01T03:56:55.665Z,14.43
2018-11-01T03:59:23.966Z,17.97
2018-11-01T04:01:52.282Z,16.30
2018-11-01T04:04:20.569Z,10.03
2018-11-01T04:06:48.902Z,11.27
2018-11-01T04:09:17.208Z,11.40
2018-11-01T04:11:45.586Z,10.37
2018-11-01T04:14:13.879Z,9.97
2018-11-01T04:16:42.236Z,6.80
2018-11-01T04:19:10.530Z,12.63
2018-11-01T04:21:38.837Z,10.67
2018-11-01T04:24:07.133Z,10.93
2018-11-01T04:26:35.461Z,9.03
2018-11-01T04:29:03.791Z,10.37
2018-11-01T04:31:32.121Z,16.23
2018-11-01T04:34:00.434Z,20.63
2018-11-01T04:36:28.750Z,11.30
2018-11-01T04:38:57.042Z,9.87
2018-11-01T04:41:25.374Z,7.77
2018-11-01T04:43:53.696Z,10.07
2018-11-01T04:46:23.186Z,9.33
2018-11-01T04:48:51.464Z,10.13
2018-11-01T04:51:19.785Z,9.20
2018-11-01T04:53:48.077Z,10.73
2018-11-01T04:56:16.434Z,13.40
2018-11-01T04:58:44.722Z,9.63
2018-11-01T05:01:13.057Z,8.97
2018-11-01T05:03:41.382Z,8.10
2018-11-01T05:06:09.716Z,10.37
2018-11-01T05:08:38.021Z,8.47
2018-11-01T05:11:06.354Z,8.87
2018-11-01T05:13:34.653Z,9.47
2018-11-01T05:16:02.977Z,8.37
2018-11-01T05:18:31.269Z,10.23
2018-11-01T05:20:59.575Z,11.27
2018-11-01T05:23:27.869Z,14.10
2018-11-01T05:25:56.205Z,11.47
2018-11-01T05:28:24.485Z,8.80
2018-11-01T05:30:52.822Z,6.60
2018-11-01T05:33:21.113Z,10.73
2018-11-01T05:35:49.422Z,9.13
2018-11-01T05:38:17.737Z,9.43
2018-11-01T05:40:46.045Z,9.87
2018-11-01T05:43:19.629Z,8.80
2018-11-01T05:45:48.026Z,9.40
2018-11-01T05:48:16.348Z,11.17
2018-11-01T05:50:44.685Z,14.33
2018-11-01T05:53:12.985Z,10.87
2018-11-01T05:55:41.325Z,7.73
2018-11-01T05:58:09.633Z,9.90
2018-11-01T06:00:37.929Z,10.27
2018-11-01T06:03:06.304Z,7.13
2018-11-01T06:05:34.623Z,10.80
2018-11-01T06:08:07.634Z,11.87
2018-11-01T06:10:36.007Z,10.73
2018-11-01T06:13:04.338Z,8.80
2018-11-01T06:15:32.629Z,10.57
2018-11-01T06:18:00.946Z,10.23
2018-11-01T06:20:29.305Z,9.47
2018-11-01T06:22:57.583Z,10.87
2018-11-01T06:25:25.950Z,6.67
2018-11-01T06:27:54.281Z,10.07
2018-11-01T06:30:22.609Z,12.03
2018-11-01T06:32:50.898Z,7.73
2018-11-01T06:35:25.509Z,8.40
2018-11-01T06:37:53.825Z,8.17
2018-11-01T06:40:22.114Z,8.70
2018-11-01T06:42:50.457Z,10.00
2018-11-01T06:45:19.200Z,10.80
2018-11-01T06:47:47.514Z,8.93
2018-11-01T06:50:15.824Z,9.23
2018-11-01T06:52:44.134Z,11.57
2018-11-01T06:55:12.621Z,12.13
2018-11-01T06:57:40.930Z,9.13
2018-11-01T07:00:11.625Z,11.07
2018-11-01T07:02:40.430Z,9.83
2018-11-01T07:05:08.765Z,9.33
2018-11-01T07:07:37.389Z,9.23
2018-11-01T07:10:07.409Z,9.20
2018-11-01T07:12:35.759Z,8.83
2018-11-01T07:15:04.781Z,11.00
2018-11-01T07:17:33.324Z,10.43
2018-11-01T07:20:01.436Z,10.47
2018-11-01T07:22:29.755Z,11.10
2018-11-01T07:24:58.045Z,10.30
2018-11-01T07:27:26.590Z,27.57
2018-11-01T07:29:54.891Z,59.87
2018-11-01T07:32:23.258Z,51.10
2018-11-01T07:34:51.521Z,26.77
2018-11-01T07:37:19.845Z,16.97
2018-11-01T07:39:48.171Z,13.23
2018-11-01T07:42:16.477Z,12.47
2018-11-01T07:44:44.781Z,10.40
2018-11-01T07:47:13.113Z,9.90
2018-11-01T07:50:40.185Z,10.77
2018-11-01T07:53:09.646Z,12.13
2018-11-01T07:55:41.513Z,11.80
2018-11-01T08:17:50.361Z,16.10
2018-11-01T08:20:18.918Z,13.73
2018-11-01T08:22:47.012Z,13.07
2018-11-01T08:25:15.671Z,12.67
2018-11-01T08:27:44.357Z,14.57
2018-11-01T08:30:14.170Z,13.00
2018-11-01T08:32:42.510Z,13.13
2018-11-01T08:35:11.545Z,13.53
2018-11-01T08:37:40.755Z,10.63
2018-11-01T08:40:09.980Z,10.33
2018-11-01T08:42:38.637Z,12.37
2018-11-01T08:45:08.732Z,11.17
2018-11-01T08:47:37.331Z,10.97
2018-11-01T08:50:07.075Z,10.93
2018-11-01T08:52:35.400Z,12.00
2018-11-01T08:55:03.717Z,10.60
2018-11-01T08:57:32.032Z,10.83
2018-11-01T09:00:00.345Z,10.53
2018-11-01T09:02:28.698Z,9.50
2018-11-01T09:04:57.021Z,10.63
2018-11-01T09:07:25.379Z,10.90
2018-11-01T09:09:53.726Z,11.50
2018-11-01T09:12:22.030Z,12.07
2018-11-01T09:14:50.337Z,13.90
2018-11-01T09:17:18.652Z,13.90
2018-11-01T09:19:46.961Z,15.23
2018-11-01T09:22:15.301Z,15.70
2018-11-01T09:24:43.612Z,15.50
2018-11-01T09:27:11.909Z,17.17
2018-11-01T09:29:40.241Z,18.37
2018-11-01T09:32:09.169Z,16.53
2018-11-01T09:34:37.513Z,17.43
2018-11-01T09:37:05.845Z,14.83
2018-11-01T09:39:34.197Z,13.93
2018-11-01T09:42:02.504Z,16.40
2018-11-01T09:44:30.821Z,18.03
2018-11-01T09:46:59.554Z,15.53
2018-11-01T09:49:27.449Z,13.87
2018-11-01T09:51:55.789Z,18.83
2018-11-01T09:54:24.109Z,19.23
2018-11-01T09:56:52.409Z,14.70
2018-11-01T09:59:20.725Z,12.60
2018-11-01T10:01:49.036Z,13.03
2018-11-01T10:04:17.361Z,12.27
2018-11-01T10:06:45.686Z,10.83
2018-11-01T10:09:13.981Z,11.40
2018-11-01T10:11:42.278Z,13.50
2018-11-01T10:14:10.603Z,12.40
2018-11-01T10:16:39.383Z,12.90
2018-11-01T10:19:08.873Z,12.33
2018-11-01T10:21:37.193Z,12.50
2018-11-01T10:24:05.824Z,11.80
2018-11-01T10:26:34.145Z,12.70
2018-11-01T10:29:02.466Z,12.10
2018-11-01T10:31:30.785Z,12.60
2018-11-01T10:33:59.166Z,9.47
2018-11-01T10:36:27.416Z,11.33
2018-11-01T10:38:55.745Z,9.60
2018-11-01T10:41:24.042Z,10.60
2018-11-01T10:43:52.359Z,11.30
2018-11-01T10:46:20.654Z,12.70
2018-11-01T10:48:48.992Z,9.70
2018-11-01T10:51:17.294Z,9.67
2018-11-01T10:53:45.657Z,11.70
2018-11-01T10:56:13.952Z,8.97
2018-11-01T10:58:42.246Z,9.97
2018-11-01T11:01:15.978Z,9.33
2018-11-01T11:03:44.222Z,11.83
2018-11-01T11:06:12.545Z,10.23
2018-11-01T11:08:40.910Z,10.03
2018-11-01T11:11:09.230Z,9.97
2018-11-01T11:13:37.657Z,8.40
2018-11-01T11:16:05.989Z,9.37
2018-11-01T11:18:34.312Z,10.83
2018-11-01T11:21:02.959Z,9.87
2018-11-01T11:23:30.945Z,10.57
2018-11-01T11:25:59.266Z,10.67
2018-11-01T11:28:27.645Z,10.83
2018-11-01T11:30:55.957Z,11.23
2018-11-01T11:33:24.265Z,12.97
2018-11-01T11:35:52.611Z,11.57
2018-11-01T11:38:21.121Z,12.43
2018-11-01T11:40:49.437Z,13.43
2018-11-01T11:43:17.729Z,10.73
2018-11-01T11:45:46.053Z,12.87
2018-11-01T11:48:14.350Z,14.93
2018-11-01T11:50:42.674Z,12.03
2018-11-01T11:53:10.973Z,13.03
2018-11-01T11:55:39.312Z,12.67
2018-11-01T11:58:07.605Z,13.73
2018-11-01T12:00:35.920Z,13.27
2018-11-01T12:03:04.252Z,13.97
2018-11-01T12:05:32.614Z,13.00
2018-11-01T12:08:00.913Z,13.00
2018-11-01T12:10:29.226Z,14.80
2018-11-01T12:12:57.522Z,14.07
2018-11-01T12:15:25.837Z,12.57
2018-11-01T12:17:54.129Z,12.87
2018-11-01T12:20:22.466Z,14.90
2018-11-01T12:22:50.761Z,15.30
2018-11-01T12:25:19.095Z,13.67
2018-11-01T12:27:47.406Z,17.83
2018-11-01T12:30:15.761Z,13.90
2018-11-01T12:32:44.063Z,15.17
2018-11-01T12:35:12.486Z,15.87
2018-11-01T12:37:40.738Z,16.10
2018-11-01T12:40:10.521Z,17.27
2018-11-01T12:42:38.868Z,18.37
2018-11-01T12:45:08.506Z,17.27
2018-11-01T12:47:36.969Z,18.43
2018-11-01T12:50:07.474Z,18.87
2018-11-01T12:52:35.665Z,15.20
2018-11-01T12:55:04.042Z,19.37
2018-11-01T12:57:32.380Z,19.20
2018-11-01T13:00:00.693Z,16.40
2018-11-01T13:02:29.133Z,17.03
2018-11-01T13:04:57.565Z,15.90
2018-11-01T13:07:25.881Z,15.40
2018-11-01T13:09:54.188Z,16.87
2018-11-01T13:12:22.552Z,18.40
2018-11-01T13:14:50.867Z,21.27
2018-11-01T13:17:19.185Z,17.13
2018-11-01T13:19:47.481Z,15.83
2018-11-01T13:22:15.809Z,18.97
2018-11-01T13:24:44.121Z,16.70
2018-11-01T13:27:12.446Z,15.00
2018-11-01T13:29:40.750Z,16.23
2018-11-01T13:32:09.081Z,17.40
2018-11-01T13:34:37.419Z,14.87
2018-11-01T13:37:05.739Z,14.67
2018-11-01T13:39:34.204Z,15.93
2018-11-01T13:42:02.406Z,16.03
2018-11-01T13:44:30.733Z,13.73
2018-11-01T13:46:59.168Z,14.23
2018-11-01T13:49:27.461Z,16.97
2018-11-01T13:51:55.792Z,16.57
2018-11-01T13:54:24.137Z,14.37
2018-11-01T13:56:52.417Z,15.03
2018-11-01T13:59:20.721Z,13.27
2018-11-01T14:01:49.096Z,14.90
2018-11-01T14:04:17.393Z,14.63
2018-11-01T14:06:45.717Z,16.17
2018-11-01T14:09:14.053Z,14.40
2018-11-01T14:11:42.393Z,13.97
2018-11-01T14:14:10.984Z,14.33
2018-11-01T14:16:39.316Z,18.17
2018-11-01T14:19:07.621Z,18.10
2018-11-01T14:21:35.937Z,17.10
2018-11-01T14:24:04.469Z,14.87
2018-11-01T14:26:32.792Z,14.37
2018-11-01T14:29:01.093Z,15.03
2018-11-01T14:31:29.424Z,16.00
2018-11-01T14:33:57.729Z,15.17
2018-11-01T14:36:26.060Z,12.63
2018-11-01T14:38:54.397Z,11.80
2018-11-01T14:41:22.714Z,13.20
2018-11-01T14:43:51.149Z,14.40
2018-11-01T14:46:19.477Z,12.50
2018-11-01T14:48:47.801Z,12.93
2018-11-01T14:51:16.111Z,11.93
2018-11-01T14:53:44.704Z,11.93
2018-11-01T14:56:14.124Z,12.77
2018-11-01T14:58:42.514Z,11.97
2018-11-01T15:01:09.570Z,15.07
2018-11-01T15:03:37.900Z,10.67
2018-11-01T15:06:08.806Z,12.20
2018-11-01T15:08:39.391Z,9.70
2018-11-01T15:11:07.698Z,12.83
2018-11-01T15:13:36.013Z,12.10
2018-11-01T15:16:04.344Z,16.93
2018-11-01T15:18:32.770Z,14.13
2018-11-01T15:21:01.074Z,15.67
2018-11-01T15:23:29.398Z,14.53
2018-11-01T15:25:59.070Z,13.90
2018-11-01T15:28:27.366Z,15.00
2018-11-01T15:30:56.439Z,17.47
2018-11-01T15:33:25.174Z,23.07
2018-11-01T15:35:53.410Z,21.17
2018-11-01T15:38:22.306Z,29.27
2018-11-01T15:40:56.980Z,24.70
2018-11-01T15:43:25.302Z,22.97
2018-11-01T15:45:53.609Z,20.17
2018-11-01T15:48:22.055Z,20.90
2018-11-01T15:50:50.277Z,16.60
2018-11-01T15:53:18.602Z,17.50
2018-11-01T15:55:46.921Z,22.00
2018-11-01T15:58:15.294Z,21.30
2018-11-01T16:00:43.594Z,24.87
2018-11-01T16:03:11.938Z,28.53
2018-11-01T16:05:40.241Z,21.73
2018-11-01T16:08:08.582Z,20.77
2018-11-01T16:10:36.885Z,23.17
2018-11-01T16:13:05.238Z,22.20
2018-11-01T16:15:33.561Z,28.43
2018-11-01T16:18:01.886Z,29.37
2018-11-01T16:20:30.193Z,32.97
2018-11-01T16:22:58.530Z,32.33
2018-11-01T16:25:26.860Z,28.00
2018-11-01T16:27:55.197Z,30.77
2018-11-01T16:30:23.505Z,27.90
2018-11-01T16:32:51.830Z,29.23
2018-11-01T16:35:20.129Z,26.60
2018-11-01T16:37:48.457Z,30.93
2018-11-01T16:40:16.801Z,23.10
2018-11-01T16:42:45.157Z,31.53
2018-11-01T16:45:14.997Z,34.90
2018-11-01T16:47:43.521Z,25.10
2018-11-01T16:50:12.057Z,29.97
2018-11-01T16:52:41.388Z,31.43
2018-11-01T16:55:09.938Z,33.37
2018-11-01T16:57:38.274Z,27.53
2018-11-01T17:00:09.040Z,30.67
2018-11-01T17:02:37.771Z,28.63
2018-11-01T17:05:06.558Z,29.87
2018-11-01T17:07:34.866Z,30.97
2018-11-01T17:10:03.343Z,25.07
2018-11-01T17:12:31.591Z,29.47
2018-11-01T17:14:59.937Z,23.70
2018-11-01T17:17:28.236Z,26.50
2018-11-01T17:19:56.569Z,22.73
2018-11-01T17:22:24.873Z,25.20
2018-11-01T17:24:53.253Z,29.07
2018-11-01T17:27:21.524Z,28.57
2018-11-01T17:29:49.869Z,41.03
2018-11-01T17:32:18.183Z,35.33
2018-11-01T17:34:46.546Z,35.47
2018-11-01T17:37:14.860Z,44.43
2018-11-01T17:39:43.541Z,49.33
2018-11-01T17:42:11.897Z,49.73
2018-11-01T17:44:40.217Z,48.87
2018-11-01T17:47:08.541Z,50.60
2018-11-01T17:49:37.046Z,46.03
2018-11-01T17:52:05.373Z,47.40
2018-11-01T17:54:33.694Z,31.30
2018-11-01T17:57:02.011Z,31.83
2018-11-01T17:59:30.350Z,25.53
2018-11-01T18:01:58.723Z,25.73
2018-11-01T18:04:27.017Z,24.53
2018-11-01T18:06:55.349Z,28.30
2018-11-01T18:09:23.721Z,33.20
2018-11-01T18:11:52.030Z,33.40
2018-11-01T18:14:20.435Z,33.23
2018-11-01T18:16:48.690Z,33.20
2018-11-01T18:19:17.053Z,30.93
2018-11-01T18:21:45.377Z,27.63
2018-11-01T18:24:14.097Z,27.83
2018-11-01T18:26:42.414Z,30.73
2018-11-01T18:29:10.813Z,29.33
2018-11-01T18:31:39.115Z,26.13
2018-11-01T18:34:07.453Z,25.33
2018-11-01T18:36:35.772Z,24.00
2018-11-01T18:39:05.226Z,27.97
2018-11-01T18:41:33.479Z,27.37
2018-11-01T18:44:01.813Z,35.20
2018-11-01T18:46:30.129Z,31.93
2018-11-01T18:48:58.469Z,24.33
2018-11-01T18:51:26.785Z,23.87
2018-11-01T18:53:55.424Z,22.27
2018-11-01T18:56:23.725Z,23.73
2018-11-01T18:58:52.037Z,25.73
2018-11-01T19:01:20.394Z,24.20
2018-11-01T19:03:48.710Z,25.40
2018-11-01T19:06:17.034Z,22.80
2018-11-01T19:08:45.409Z,26.43
2018-11-01T19:11:13.940Z,26.27
2018-11-01T19:13:42.285Z,12.03
2018-11-01T19:16:10.680Z,7.90
2018-11-01T19:18:38.961Z,8.80
2018-11-01T19:21:07.434Z,9.93
2018-11-01T19:23:35.796Z,9.40
2018-11-01T19:26:04.342Z,11.03
2018-11-01T19:28:32.644Z,12.23
2018-11-01T19:31:00.983Z,12.07
2018-11-01T19:33:29.293Z,14.73
2018-11-01T19:35:57.742Z,15.43
2018-11-01T19:38:26.050Z,14.47
2018-11-01T19:40:54.377Z,18.23
2018-11-01T19:43:22.704Z,13.27
2018-11-01T19:45:51.017Z,12.20
2018-11-01T19:48:19.455Z,14.80
2018-11-01T19:50:47.674Z,12.13
2018-11-01T19:53:15.997Z,15.50
2018-11-01T19:55:44.410Z,15.47
2018-11-01T19:58:12.713Z,15.90
2018-11-01T20:00:41.066Z,8.90
2018-11-01T20:03:09.397Z,6.23
2018-11-01T20:05:37.747Z,4.87
2018-11-01T20:08:06.359Z,4.03
2018-11-01T20:10:34.697Z,4.17
2018-11-01T20:13:03.125Z,7.03
2018-11-01T20:15:31.497Z,5.10
2018-11-01T20:17:59.801Z,4.43
2018-11-01T20:20:28.193Z,5.30
2018-11-01T20:22:56.493Z,7.37
2018-11-01T20:25:24.897Z,5.10
2018-11-01T20:27:53.185Z,3.43
2018-11-01T20:30:21.524Z,2.87
2018-11-01T20:32:49.846Z,3.23
2018-11-01T20:35:18.181Z,3.23
2018-11-01T20:37:46.523Z,5.50
2018-11-01T20:40:14.834Z,2.40
2018-11-01T20:42:43.597Z,2.17
2018-11-01T20:45:12.765Z,15.23
2018-11-01T20:47:41.055Z,2.63
2018-11-01T20:50:10.750Z,2.60
2018-11-01T20:52:39.047Z,2.23
2018-11-01T20:55:07.397Z,3.40
2018-11-01T20:57:35.760Z,1.67
2018-11-01T21:00:04.157Z,1.90
2018-11-01T21:02:32.502Z,3.87
2018-11-01T21:05:00.815Z,2.50
2018-11-01T21:07:29.148Z,3.20
2018-11-01T21:09:57.449Z,1.93
2018-11-01T21:12:25.786Z,2.23
2018-11-01T21:14:54.085Z,1.37
2018-11-01T21:17:22.409Z,2.40
2018-11-01T21:19:50.713Z,1.17
2018-11-01T21:22:19.025Z,2.53
2018-11-01T21:24:47.326Z,15.57
2018-11-01T21:27:15.722Z,4.87
2018-11-01T21:29:44.029Z,2.00
2018-11-01T21:32:12.349Z,6.30
2018-11-01T21:34:40.649Z,4.40
2018-11-01T21:37:09.074Z,1.60
2018-11-01T21:39:37.905Z,1.50
2018-11-01T21:42:06.281Z,0.90
2018-11-01T21:44:34.595Z,0.87
2018-11-01T21:47:02.922Z,1.40
2018-11-01T21:49:31.233Z,2.13
2018-11-01T21:51:59.562Z,0.97
2018-11-01T21:54:27.866Z,2.30
2018-11-01T21:56:56.186Z,1.20
2018-11-01T21:59:24.485Z,1.10
2018-11-01T22:01:52.841Z,0.67
2018-11-01T22:04:21.161Z,1.23
2018-11-01T22:06:49.529Z,1.27
2018-11-01T22:09:17.821Z,0.80
2018-11-01T22:11:46.165Z,0.90
2018-11-01T22:14:14.465Z,1.37
2018-11-01T22:16:43.065Z,1.03
2018-11-01T22:19:11.362Z,1.10
2018-11-01T22:21:39.692Z,1.80
2018-11-01T22:24:08.120Z,1.53
2018-11-01T22:26:36.454Z,2.20
2018-11-01T22:29:04.921Z,1.20
2018-11-01T22:31:33.245Z,1.30
2018-11-01T22:34:01.550Z,2.77
2018-11-01T22:36:29.869Z,1.30
2018-11-01T22:38:58.174Z,7.37
2018-11-01T22:41:26.557Z,1.73
2018-11-01T22:43:54.850Z,1.50
2018-11-01T22:46:23.174Z,1.83
2018-11-01T22:48:51.525Z,2.10
2018-11-01T22:51:19.856Z,1.93
2018-11-01T22:53:48.264Z,1.70
2018-11-01T22:56:16.517Z,1.90
2018-11-01T22:58:44.839Z,2.17
2018-11-01T23:01:13.160Z,1.53
2018-11-01T23:03:41.797Z,3.33
2018-11-01T23:06:10.094Z,1.53
2018-11-01T23:08:38.408Z,1.93
2018-11-01T23:11:06.721Z,0.97
2018-11-01T23:13:35.049Z,1.57
2018-11-01T23:16:03.345Z,1.33
2018-11-01T23:18:31.666Z,2.10
2018-11-01T23:20:59.989Z,1.17
2018-11-01T23:23:28.301Z,1.40
2018-11-01T23:25:56.641Z,2.30
2018-11-01T23:28:24.999Z,1.73
2018-11-01T23:30:53.306Z,1.80
2018-11-01T23:33:21.713Z,3.97
2018-11-01T23:35:50.082Z,3.40
2018-11-01T23:38:23.917Z,2.87
2018-11-01T23:40:57.726Z,4.20
2018-11-01T23:43:31.497Z,1.53
2018-11-01T23:46:05.213Z,1.63
2018-11-01T23:48:32.778Z,1.93
2018-11-01T23:51:31.889Z,2.10
2018-11-01T23:54:00.231Z,1.73
2018-11-01T23:56:28.530Z,1.20
2018-11-01T23:58:56.853Z,2.97
